sensor_id;sensor_type;location;lat;lon;timestamp;temperature;humidity
5128;DHT22;2582;48.770;9.190;2023-03-13T00:01:20;8.30;99.90
5128;DHT22;2582;48.770;9.190;2023-03-13T00:03:45;8.40;99.90
5128;DHT22;2582;48.770;9.190;2023-03-13T00:06:11;8.30;99.90
5128;DHT22;2582;48.770;9.190;2023-03-13T00:08:37;8.30;99.90
5128;DHT22;2582;48.770;9.190;2023-03-13T00:11:05;8.30;99.90
5128;DHT22;2582;48.770;9.190;2023-03-13T00:13:31;8.30;99.90
5128;DHT22;2582;48.770;9.190;2023-03-13T00:16:06;8.40;99.90
5128;DHT22;2582;48.770;9.190;2023-03-13T00:18:33;8.30;99.90
5128;DHT22;2582;48.770;9.190;2023-03-13T00:21:04;8.40;99.90
5128;DHT22;2582;48.770;9.190;2023-03-13T00:23:30;8.50;99.90
5128;DHT22;2582;48.770;9.190;2023-03-13T00:25:57;8.40;99.90
5128;DHT22;2582;48.770;9.190;2023-03-13T00:28:23;8.50;99.90
5128;DHT22;2582;48.770;9.190;2023-03-13T00:30:48;8.50;99.90
5128;DHT22;2582;48.770;9.190;2023-03-13T00:33:14;8.50;99.90
5128;DHT22;2582;48.770;9.190;2023-03-13T00:35:39;8.50;99.90
5128;DHT22;2582;48.770;9.190;2023-03-13T00:38:05;8.50;99.90
5128;DHT22;2582;48.770;9.190;2023-03-13T00:40:30;8.60;99.90
5128;DHT22;2582;48.770;9.190;2023-03-13T00:42:56;8.70;99.90
5128;DHT22;2582;48.770;9.190;2023-03-13T00:45:21;8.80;99.90
5128;DHT22;2582;48.770;9.190;2023-03-13T00:47:47;8.80;99.90
5128;DHT22;2582;48.770;9.190;2023-03-13T00:50:14;8.90;99.90
5128;DHT22;2582;48.770;9.190;2023-03-13T00:52:40;9.00;99.90
5128;DHT22;2582;48.770;9.190;2023-03-13T00:55:06;9.00;99.90
5128;DHT22;2582;48.770;9.190;2023-03-13T00:57:31;9.10;99.90
5128;DHT22;2582;48.770;9.190;2023-03-13T01:00:03;9.10;99.90
5128;DHT22;2582;48.770;9.190;2023-03-13T01:02:30;9.20;99.90
5128;DHT22;2582;48.770;9.190;2023-03-13T01:04:56;9.30;99.90
5128;DHT22;2582;48.770;9.190;2023-03-13T01:07:21;9.30;99.90
5128;DHT22;2582;48.770;9.190;2023-03-13T01:09:47;9.30;99.90
5128;DHT22;2582;48.770;9.190;2023-03-13T01:12:12;9.30;99.90
5128;DHT22;2582;48.770;9.190;2023-03-13T01:14:38;9.30;99.90
5128;DHT22;2582;48.770;9.190;2023-03-13T01:17:03;9.30;99.90
5128;DHT22;2582;48.770;9.190;2023-03-13T01:19:29;9.40;99.90
5128;DHT22;2582;48.770;9.190;2023-03-13T01:21:55;9.40;99.90
5128;DHT22;2582;48.770;9.190;2023-03-13T01:24:20;9.50;99.90
5128;DHT22;2582;48.770;9.190;2023-03-13T01:26:46;9.50;99.90
5128;DHT22;2582;48.770;9.190;2023-03-13T01:29:12;9.40;99.90
5128;DHT22;2582;48.770;9.190;2023-03-13T01:31:38;9.50;99.90
5128;DHT22;2582;48.770;9.190;2023-03-13T01:34:05;9.60;99.90
5128;DHT22;2582;48.770;9.190;2023-03-13T01:36:31;9.50;99.90
5128;DHT22;2582;48.770;9.190;2023-03-13T01:38:59;9.50;99.90
5128;DHT22;2582;48.770;9.190;2023-03-13T01:41:27;9.70;99.90
5128;DHT22;2582;48.770;9.190;2023-03-13T01:43:53;9.70;99.90
5128;DHT22;2582;48.770;9.190;2023-03-13T01:46:24;9.70;99.90
5128;DHT22;2582;48.770;9.190;2023-03-13T01:48:59;9.60;99.90
5128;DHT22;2582;48.770;9.190;2023-03-13T01:51:39;9.70;99.90
5128;DHT22;2582;48.770;9.190;2023-03-13T01:54:16;9.70;99.90
5128;DHT22;2582;48.770;9.190;2023-03-13T01:59:14;9.80;99.90
5128;DHT22;2582;48.770;9.190;2023-03-13T02:01:43;9.80;99.90
5128;DHT22;2582;48.770;9.190;2023-03-13T02:04:10;9.80;99.90
5128;DHT22;2582;48.770;9.190;2023-03-13T02:06:38;9.90;99.90
5128;DHT22;2582;48.770;9.190;2023-03-13T02:09:09;10.00;99.90
5128;DHT22;2582;48.770;9.190;2023-03-13T02:11:54;9.90;99.90
5128;DHT22;2582;48.770;9.190;2023-03-13T02:14:24;9.90;99.90
5128;DHT22;2582;48.770;9.190;2023-03-13T02:16:52;9.90;99.90
5128;DHT22;2582;48.770;9.190;2023-03-13T02:19:42;9.90;99.90
5128;DHT22;2582;48.770;9.190;2023-03-13T02:30:15;10.20;99.90
5128;DHT22;2582;48.770;9.190;2023-03-13T02:32:42;10.20;99.90
5128;DHT22;2582;48.770;9.190;2023-03-13T02:35:11;10.10;99.90
5128;DHT22;2582;48.770;9.190;2023-03-13T02:37:40;10.10;99.90
5128;DHT22;2582;48.770;9.190;2023-03-13T02:40:09;10.20;99.90
5128;DHT22;2582;48.770;9.190;2023-03-13T02:42:38;10.20;99.90
5128;DHT22;2582;48.770;9.190;2023-03-13T02:45:05;10.30;99.90
5128;DHT22;2582;48.770;9.190;2023-03-13T02:47:31;10.40;99.90
5128;DHT22;2582;48.770;9.190;2023-03-13T02:49:56;10.50;99.90
5128;DHT22;2582;48.770;9.190;2023-03-13T02:52:27;10.70;99.90
5128;DHT22;2582;48.770;9.190;2023-03-13T02:55:14;10.80;99.90
5128;DHT22;2582;48.770;9.190;2023-03-13T02:57:42;10.90;99.90
5128;DHT22;2582;48.770;9.190;2023-03-13T03:00:09;11.00;99.90
5128;DHT22;2582;48.770;9.190;2023-03-13T03:02:37;10.90;99.90
5128;DHT22;2582;48.770;9.190;2023-03-13T03:05:03;11.00;99.90
5128;DHT22;2582;48.770;9.190;2023-03-13T03:07:29;11.10;99.90
5128;DHT22;2582;48.770;9.190;2023-03-13T03:09:55;11.00;99.90
5128;DHT22;2582;48.770;9.190;2023-03-13T03:12:21;11.00;99.90
5128;DHT22;2582;48.770;9.190;2023-03-13T03:14:46;11.00;99.90
5128;DHT22;2582;48.770;9.190;2023-03-13T03:17:12;11.10;99.90
5128;DHT22;2582;48.770;9.190;2023-03-13T03:19:37;11.20;99.90
5128;DHT22;2582;48.770;9.190;2023-03-13T03:22:03;11.20;99.90
5128;DHT22;2582;48.770;9.190;2023-03-13T03:24:29;11.30;99.90
5128;DHT22;2582;48.770;9.190;2023-03-13T03:26:54;11.20;99.90
5128;DHT22;2582;48.770;9.190;2023-03-13T03:29:20;11.20;99.90
5128;DHT22;2582;48.770;9.190;2023-03-13T03:31:45;11.10;99.90
5128;DHT22;2582;48.770;9.190;2023-03-13T03:34:11;11.00;99.90
5128;DHT22;2582;48.770;9.190;2023-03-13T03:36:36;11.10;99.90
5128;DHT22;2582;48.770;9.190;2023-03-13T03:39:02;11.20;99.90
5128;DHT22;2582;48.770;9.190;2023-03-13T03:41:29;11.30;99.90
5128;DHT22;2582;48.770;9.190;2023-03-13T03:43:55;11.30;99.90
5128;DHT22;2582;48.770;9.190;2023-03-13T03:46:20;11.30;99.90
5128;DHT22;2582;48.770;9.190;2023-03-13T03:48:46;11.10;99.90
5128;DHT22;2582;48.770;9.190;2023-03-13T03:51:11;11.10;99.90
5128;DHT22;2582;48.770;9.190;2023-03-13T03:53:37;11.20;99.90
5128;DHT22;2582;48.770;9.190;2023-03-13T03:56:03;11.10;99.90
5128;DHT22;2582;48.770;9.190;2023-03-13T03:58:29;11.30;99.90
5128;DHT22;2582;48.770;9.190;2023-03-13T04:00:56;11.30;99.90
5128;DHT22;2582;48.770;9.190;2023-03-13T04:03:22;11.40;99.90
5128;DHT22;2582;48.770;9.190;2023-03-13T04:05:48;11.40;99.90
5128;DHT22;2582;48.770;9.190;2023-03-13T04:08:13;11.60;99.90
5128;DHT22;2582;48.770;9.190;2023-03-13T04:10:39;11.70;99.90
5128;DHT22;2582;48.770;9.190;2023-03-13T04:13:05;11.80;99.90
5128;DHT22;2582;48.770;9.190;2023-03-13T04:15:30;12.00;99.90
5128;DHT22;2582;48.770;9.190;2023-03-13T04:17:56;12.00;99.90
5128;DHT22;2582;48.770;9.190;2023-03-13T04:20:22;12.00;99.90
5128;DHT22;2582;48.770;9.190;2023-03-13T04:22:47;12.10;99.90
5128;DHT22;2582;48.770;9.190;2023-03-13T04:25:13;12.20;99.90
5128;DHT22;2582;48.770;9.190;2023-03-13T04:27:38;12.20;99.90
5128;DHT22;2582;48.770;9.190;2023-03-13T04:30:04;12.30;99.90
5128;DHT22;2582;48.770;9.190;2023-03-13T04:32:31;12.30;99.90
5128;DHT22;2582;48.770;9.190;2023-03-13T04:34:57;12.40;99.90
5128;DHT22;2582;48.770;9.190;2023-03-13T04:37:23;12.50;99.90
5128;DHT22;2582;48.770;9.190;2023-03-13T04:39:48;12.60;99.90
5128;DHT22;2582;48.770;9.190;2023-03-13T04:42:14;12.60;99.90
5128;DHT22;2582;48.770;9.190;2023-03-13T04:44:40;12.50;99.90
5128;DHT22;2582;48.770;9.190;2023-03-13T04:47:05;12.50;99.90
5128;DHT22;2582;48.770;9.190;2023-03-13T04:49:31;12.60;99.90
5128;DHT22;2582;48.770;9.190;2023-03-13T04:51:57;12.60;99.90
5128;DHT22;2582;48.770;9.190;2023-03-13T04:54:22;12.70;99.90
5128;DHT22;2582;48.770;9.190;2023-03-13T04:56:48;12.80;99.90
5128;DHT22;2582;48.770;9.190;2023-03-13T04:59:14;12.80;99.90
5128;DHT22;2582;48.770;9.190;2023-03-13T05:01:41;12.80;99.90
5128;DHT22;2582;48.770;9.190;2023-03-13T05:04:06;12.80;99.90
5128;DHT22;2582;48.770;9.190;2023-03-13T05:06:32;12.70;99.90
5128;DHT22;2582;48.770;9.190;2023-03-13T05:08:58;12.70;99.90
5128;DHT22;2582;48.770;9.190;2023-03-13T05:11:23;12.70;99.90
5128;DHT22;2582;48.770;9.190;2023-03-13T05:13:49;12.70;99.90
5128;DHT22;2582;48.770;9.190;2023-03-13T05:16:14;12.70;99.90
5128;DHT22;2582;48.770;9.190;2023-03-13T05:18:40;12.70;99.90
5128;DHT22;2582;48.770;9.190;2023-03-13T05:21:06;12.70;99.90
5128;DHT22;2582;48.770;9.190;2023-03-13T05:23:32;12.60;99.90
5128;DHT22;2582;48.770;9.190;2023-03-13T05:25:58;12.60;99.90
5128;DHT22;2582;48.770;9.190;2023-03-13T05:28:24;12.70;99.90
5128;DHT22;2582;48.770;9.190;2023-03-13T05:30:49;12.70;99.90
5128;DHT22;2582;48.770;9.190;2023-03-13T05:33:15;12.70;99.90
5128;DHT22;2582;48.770;9.190;2023-03-13T05:35:41;12.70;99.90
5128;DHT22;2582;48.770;9.190;2023-03-13T05:38:07;12.60;99.90
5128;DHT22;2582;48.770;9.190;2023-03-13T05:40:33;12.70;99.90
5128;DHT22;2582;48.770;9.190;2023-03-13T05:42:58;12.70;99.90
5128;DHT22;2582;48.770;9.190;2023-03-13T05:45:24;12.80;99.90
5128;DHT22;2582;48.770;9.190;2023-03-13T05:47:50;12.80;99.90
5128;DHT22;2582;48.770;9.190;2023-03-13T05:50:16;12.90;99.90
5128;DHT22;2582;48.770;9.190;2023-03-13T05:52:41;12.80;99.90
5128;DHT22;2582;48.770;9.190;2023-03-13T05:55:07;12.80;99.90
5128;DHT22;2582;48.770;9.190;2023-03-13T05:57:33;12.80;99.90
5128;DHT22;2582;48.770;9.190;2023-03-13T05:59:58;12.90;99.90
5128;DHT22;2582;48.770;9.190;2023-03-13T06:02:24;12.90;99.90
5128;DHT22;2582;48.770;9.190;2023-03-13T06:04:50;13.00;99.90
5128;DHT22;2582;48.770;9.190;2023-03-13T06:07:15;13.00;99.90
5128;DHT22;2582;48.770;9.190;2023-03-13T06:09:41;12.90;99.90
5128;DHT22;2582;48.770;9.190;2023-03-13T06:12:11;12.90;99.90
5128;DHT22;2582;48.770;9.190;2023-03-13T06:14:36;12.90;99.90
5128;DHT22;2582;48.770;9.190;2023-03-13T06:17:03;13.00;99.90
5128;DHT22;2582;48.770;9.190;2023-03-13T06:19:28;13.00;99.90
5128;DHT22;2582;48.770;9.190;2023-03-13T06:21:54;13.00;99.90
5128;DHT22;2582;48.770;9.190;2023-03-13T06:24:19;13.10;99.90
5128;DHT22;2582;48.770;9.190;2023-03-13T06:26:47;13.20;99.90
5128;DHT22;2582;48.770;9.190;2023-03-13T06:29:13;13.20;99.90
5128;DHT22;2582;48.770;9.190;2023-03-13T06:31:38;13.20;99.90
5128;DHT22;2582;48.770;9.190;2023-03-13T06:34:04;13.20;99.90
5128;DHT22;2582;48.770;9.190;2023-03-13T06:36:30;13.30;99.90
5128;DHT22;2582;48.770;9.190;2023-03-13T06:38:55;13.30;99.90
5128;DHT22;2582;48.770;9.190;2023-03-13T06:41:21;13.40;99.90
5128;DHT22;2582;48.770;9.190;2023-03-13T06:43:46;13.50;99.90
5128;DHT22;2582;48.770;9.190;2023-03-13T06:46:16;13.50;99.90
5128;DHT22;2582;48.770;9.190;2023-03-13T06:48:42;13.40;99.90
5128;DHT22;2582;48.770;9.190;2023-03-13T06:51:13;13.50;99.90
5128;DHT22;2582;48.770;9.190;2023-03-13T06:53:39;13.70;99.90
5128;DHT22;2582;48.770;9.190;2023-03-13T06:56:05;13.80;99.90
5128;DHT22;2582;48.770;9.190;2023-03-13T06:58:31;13.90;99.90
5128;DHT22;2582;48.770;9.190;2023-03-13T07:00:57;13.90;99.90
5128;DHT22;2582;48.770;9.190;2023-03-13T07:03:22;13.80;99.90
5128;DHT22;2582;48.770;9.190;2023-03-13T07:05:54;13.80;99.90
5128;DHT22;2582;48.770;9.190;2023-03-13T07:08:20;13.70;99.90
5128;DHT22;2582;48.770;9.190;2023-03-13T07:10:45;13.60;99.90
5128;DHT22;2582;48.770;9.190;2023-03-13T07:13:15;13.70;99.90
5128;DHT22;2582;48.770;9.190;2023-03-13T07:15:40;13.60;99.90
5128;DHT22;2582;48.770;9.190;2023-03-13T07:18:06;13.50;99.90
5128;DHT22;2582;48.770;9.190;2023-03-13T07:20:31;13.60;99.90
5128;DHT22;2582;48.770;9.190;2023-03-13T07:22:58;13.50;99.90
5128;DHT22;2582;48.770;9.190;2023-03-13T07:25:23;13.50;99.90
5128;DHT22;2582;48.770;9.190;2023-03-13T07:27:50;13.60;99.90
5128;DHT22;2582;48.770;9.190;2023-03-13T07:30:16;13.60;99.90
5128;DHT22;2582;48.770;9.190;2023-03-13T07:32:42;13.60;99.90
5128;DHT22;2582;48.770;9.190;2023-03-13T07:35:08;13.70;99.90
5128;DHT22;2582;48.770;9.190;2023-03-13T07:37:33;13.80;99.90
5128;DHT22;2582;48.770;9.190;2023-03-13T07:39:59;14.00;99.90
5128;DHT22;2582;48.770;9.190;2023-03-13T07:42:24;13.90;99.90
5128;DHT22;2582;48.770;9.190;2023-03-13T07:44:50;14.10;99.90
5128;DHT22;2582;48.770;9.190;2023-03-13T07:47:15;14.00;99.90
5128;DHT22;2582;48.770;9.190;2023-03-13T07:49:41;13.80;99.90
5128;DHT22;2582;48.770;9.190;2023-03-13T07:52:08;13.90;99.90
5128;DHT22;2582;48.770;9.190;2023-03-13T07:54:34;14.00;99.90
5128;DHT22;2582;48.770;9.190;2023-03-13T07:57:00;14.00;99.90
5128;DHT22;2582;48.770;9.190;2023-03-13T07:59:26;14.00;99.90
5128;DHT22;2582;48.770;9.190;2023-03-13T08:01:52;14.10;99.90
5128;DHT22;2582;48.770;9.190;2023-03-13T08:04:17;14.20;99.90
5128;DHT22;2582;48.770;9.190;2023-03-13T08:06:43;14.10;99.90
5128;DHT22;2582;48.770;9.190;2023-03-13T08:09:09;14.10;99.90
5128;DHT22;2582;48.770;9.190;2023-03-13T08:11:35;14.10;99.90
5128;DHT22;2582;48.770;9.190;2023-03-13T08:14:02;14.30;99.90
5128;DHT22;2582;48.770;9.190;2023-03-13T08:16:32;14.40;99.90
5128;DHT22;2582;48.770;9.190;2023-03-13T08:18:59;14.50;99.90
5128;DHT22;2582;48.770;9.190;2023-03-13T08:21:29;14.50;99.90
5128;DHT22;2582;48.770;9.190;2023-03-13T08:23:56;14.70;99.90
5128;DHT22;2582;48.770;9.190;2023-03-13T08:26:25;14.80;99.90
5128;DHT22;2582;48.770;9.190;2023-03-13T08:28:54;14.80;99.90
5128;DHT22;2582;48.770;9.190;2023-03-13T08:31:22;15.00;99.90
5128;DHT22;2582;48.770;9.190;2023-03-13T08:33:49;15.00;99.90
5128;DHT22;2582;48.770;9.190;2023-03-13T08:36:20;15.10;99.90
5128;DHT22;2582;48.770;9.190;2023-03-13T08:38:48;15.10;99.90
5128;DHT22;2582;48.770;9.190;2023-03-13T08:41:18;15.30;99.90
5128;DHT22;2582;48.770;9.190;2023-03-13T08:43:45;15.50;99.90
5128;DHT22;2582;48.770;9.190;2023-03-13T08:46:11;15.50;99.90
5128;DHT22;2582;48.770;9.190;2023-03-13T08:48:37;15.30;99.90
5128;DHT22;2582;48.770;9.190;2023-03-13T08:53:31;15.20;99.90
5128;DHT22;2582;48.770;9.190;2023-03-13T08:55:57;15.10;99.90
5128;DHT22;2582;48.770;9.190;2023-03-13T08:58:23;15.10;99.90
5128;DHT22;2582;48.770;9.190;2023-03-13T09:00:49;15.20;99.90
5128;DHT22;2582;48.770;9.190;2023-03-13T09:03:14;15.20;99.90
5128;DHT22;2582;48.770;9.190;2023-03-13T09:05:41;15.30;99.90
5128;DHT22;2582;48.770;9.190;2023-03-13T09:08:07;15.50;99.90
5128;DHT22;2582;48.770;9.190;2023-03-13T09:10:33;15.50;99.90
5128;DHT22;2582;48.770;9.190;2023-03-13T09:12:59;15.60;99.90
5128;DHT22;2582;48.770;9.190;2023-03-13T09:15:24;15.60;99.90
5128;DHT22;2582;48.770;9.190;2023-03-13T09:17:50;15.50;99.90
5128;DHT22;2582;48.770;9.190;2023-03-13T09:20:16;15.40;99.90
5128;DHT22;2582;48.770;9.190;2023-03-13T09:22:43;15.40;99.90
5128;DHT22;2582;48.770;9.190;2023-03-13T09:25:09;15.50;99.90
5128;DHT22;2582;48.770;9.190;2023-03-13T09:27:35;15.50;99.90
5128;DHT22;2582;48.770;9.190;2023-03-13T09:30:00;15.50;99.90
5128;DHT22;2582;48.770;9.190;2023-03-13T09:32:26;15.60;99.90
5128;DHT22;2582;48.770;9.190;2023-03-13T09:34:51;15.90;99.90
5128;DHT22;2582;48.770;9.190;2023-03-13T09:37:17;15.80;99.90
5128;DHT22;2582;48.770;9.190;2023-03-13T09:39:42;15.80;99.90
5128;DHT22;2582;48.770;9.190;2023-03-13T09:42:11;15.80;99.90
5128;DHT22;2582;48.770;9.190;2023-03-13T09:47:25;15.80;99.90
5128;DHT22;2582;48.770;9.190;2023-03-13T09:50:22;15.90;99.90
5128;DHT22;2582;48.770;9.190;2023-03-13T09:52:50;16.00;99.90
5128;DHT22;2582;48.770;9.190;2023-03-13T09:55:27;16.10;99.90
5128;DHT22;2582;48.770;9.190;2023-03-13T09:57:59;16.10;99.90
5128;DHT22;2582;48.770;9.190;2023-03-13T10:00:30;16.20;99.90
5128;DHT22;2582;48.770;9.190;2023-03-13T10:05:37;16.40;99.90
5128;DHT22;2582;48.770;9.190;2023-03-13T10:08:26;16.50;99.90
5128;DHT22;2582;48.770;9.190;2023-03-13T10:16:04;17.10;99.90
5128;DHT22;2582;48.770;9.190;2023-03-13T10:18:34;17.30;99.90
5128;DHT22;2582;48.770;9.190;2023-03-13T10:21:13;17.20;99.90
5128;DHT22;2582;48.770;9.190;2023-03-13T10:23:48;17.50;99.90
5128;DHT22;2582;48.770;9.190;2023-03-13T10:26:19;17.70;99.90
5128;DHT22;2582;48.770;9.190;2023-03-13T10:28:45;17.50;99.90
5128;DHT22;2582;48.770;9.190;2023-03-13T10:31:38;17.50;99.90
5128;DHT22;2582;48.770;9.190;2023-03-13T10:34:09;17.60;99.90
5128;DHT22;2582;48.770;9.190;2023-03-13T10:36:43;17.80;99.90
5128;DHT22;2582;48.770;9.190;2023-03-13T10:39:18;18.00;99.90
5128;DHT22;2582;48.770;9.190;2023-03-13T10:41:44;18.50;99.90
5128;DHT22;2582;48.770;9.190;2023-03-13T10:44:20;18.90;99.90
5128;DHT22;2582;48.770;9.190;2023-03-13T10:46:48;19.10;99.90
5128;DHT22;2582;48.770;9.190;2023-03-13T10:49:19;18.50;99.90
5128;DHT22;2582;48.770;9.190;2023-03-13T10:54:34;18.20;99.90
5128;DHT22;2582;48.770;9.190;2023-03-13T10:57:31;18.40;99.90
5128;DHT22;2582;48.770;9.190;2023-03-13T10:59:57;18.60;99.90
5128;DHT22;2582;48.770;9.190;2023-03-13T11:02:31;18.90;99.90
5128;DHT22;2582;48.770;9.190;2023-03-13T11:04:58;18.90;99.90
5128;DHT22;2582;48.770;9.190;2023-03-13T11:07:36;19.10;99.90
5128;DHT22;2582;48.770;9.190;2023-03-13T11:10:23;19.30;99.90
5128;DHT22;2582;48.770;9.190;2023-03-13T11:12:51;20.00;99.90
5128;DHT22;2582;48.770;9.190;2023-03-13T11:15:50;20.20;99.90
5128;DHT22;2582;48.770;9.190;2023-03-13T11:18:39;19.70;99.90
5128;DHT22;2582;48.770;9.190;2023-03-13T11:22:16;19.50;99.90
5128;DHT22;2582;48.770;9.190;2023-03-13T11:24:23;19.40;99.90
5128;DHT22;2582;48.770;9.190;2023-03-13T11:27:09;19.70;99.90
5128;DHT22;2582;48.770;9.190;2023-03-13T11:29:59;20.00;99.90
5128;DHT22;2582;48.770;9.190;2023-03-13T11:35:43;19.80;99.90
5128;DHT22;2582;48.770;9.190;2023-03-13T11:38:34;19.80;99.90
5128;DHT22;2582;48.770;9.190;2023-03-13T11:47:04;24.80;94.40
5128;DHT22;2582;48.770;9.190;2023-03-13T11:54:49;23.70;93.80
5128;DHT22;2582;48.770;9.190;2023-03-13T11:57:23;22.70;95.40
5128;DHT22;2582;48.770;9.190;2023-03-13T12:05:40;22.10;96.00
5128;DHT22;2582;48.770;9.190;2023-03-13T12:08:34;22.50;96.20
5128;DHT22;2582;48.770;9.190;2023-03-13T12:11:21;22.30;96.30
5128;DHT22;2582;48.770;9.190;2023-03-13T12:14:12;23.20;95.00
5128;DHT22;2582;48.770;9.190;2023-03-13T12:16:41;23.80;94.00
5128;DHT22;2582;48.770;9.190;2023-03-13T12:19:11;24.20;94.00
5128;DHT22;2582;48.770;9.190;2023-03-13T12:21:50;25.30;92.20
5128;DHT22;2582;48.770;9.190;2023-03-13T12:24:34;24.50;91.30
5128;DHT22;2582;48.770;9.190;2023-03-13T12:27:17;24.20;92.20
5128;DHT22;2582;48.770;9.190;2023-03-13T12:29:47;24.10;91.60
5128;DHT22;2582;48.770;9.190;2023-03-13T12:32:21;24.30;92.10
5128;DHT22;2582;48.770;9.190;2023-03-13T12:34:58;24.00;91.80
5128;DHT22;2582;48.770;9.190;2023-03-13T12:41:07;25.40;90.00
5128;DHT22;2582;48.770;9.190;2023-03-13T12:43:39;25.40;88.80
5128;DHT22;2582;48.770;9.190;2023-03-13T12:51:50;26.20;85.30
5128;DHT22;2582;48.770;9.190;2023-03-13T13:00:24;28.00;79.80
5128;DHT22;2582;48.770;9.190;2023-03-13T13:05:35;28.20;78.30
5128;DHT22;2582;48.770;9.190;2023-03-13T13:08:01;26.80;77.30
5128;DHT22;2582;48.770;9.190;2023-03-13T13:10:28;26.60;79.20
5128;DHT22;2582;48.770;9.190;2023-03-13T13:13:17;27.10;77.90
5128;DHT22;2582;48.770;9.190;2023-03-13T13:15:57;26.80;78.30
5128;DHT22;2582;48.770;9.190;2023-03-13T13:18:26;26.60;77.80
5128;DHT22;2582;48.770;9.190;2023-03-13T13:23:27;27.00;78.20
5128;DHT22;2582;48.770;9.190;2023-03-13T13:37:40;25.20;80.30
5128;DHT22;2582;48.770;9.190;2023-03-13T13:39:46;25.00;80.10
5128;DHT22;2582;48.770;9.190;2023-03-13T13:44:58;24.90;81.70
5128;DHT22;2582;48.770;9.190;2023-03-13T13:47:27;24.80;81.10
5128;DHT22;2582;48.770;9.190;2023-03-13T13:49:55;24.30;82.10
5128;DHT22;2582;48.770;9.190;2023-03-13T13:52:38;24.00;83.00
5128;DHT22;2582;48.770;9.190;2023-03-13T13:55:29;24.10;82.70
5128;DHT22;2582;48.770;9.190;2023-03-13T13:58:10;24.60;80.60
5128;DHT22;2582;48.770;9.190;2023-03-13T14:00:43;24.40;80.50
5128;DHT22;2582;48.770;9.190;2023-03-13T14:03:22;23.70;82.10
5128;DHT22;2582;48.770;9.190;2023-03-13T14:05:51;24.20;82.30
5128;DHT22;2582;48.770;9.190;2023-03-13T14:08:26;24.60;80.80
5128;DHT22;2582;48.770;9.190;2023-03-13T14:13:40;25.20;79.80
5128;DHT22;2582;48.770;9.190;2023-03-13T14:16:24;25.80;80.00
5128;DHT22;2582;48.770;9.190;2023-03-13T14:18:50;26.50;76.30
5128;DHT22;2582;48.770;9.190;2023-03-13T14:21:21;26.90;76.10
5128;DHT22;2582;48.770;9.190;2023-03-13T14:23:47;26.90;74.30
5128;DHT22;2582;48.770;9.190;2023-03-13T14:26:21;26.60;74.20
5128;DHT22;2582;48.770;9.190;2023-03-13T14:28:56;26.30;75.20
5128;DHT22;2582;48.770;9.190;2023-03-13T14:31:25;26.50;74.30
5128;DHT22;2582;48.770;9.190;2023-03-13T14:33:51;27.30;72.50
5128;DHT22;2582;48.770;9.190;2023-03-13T14:36:17;28.50;68.60
5128;DHT22;2582;48.770;9.190;2023-03-13T14:38:57;29.30;68.00
5128;DHT22;2582;48.770;9.190;2023-03-13T14:41:46;29.20;64.00
5128;DHT22;2582;48.770;9.190;2023-03-13T14:44:24;27.70;68.10
5128;DHT22;2582;48.770;9.190;2023-03-13T14:46:55;26.40;68.80
5128;DHT22;2582;48.770;9.190;2023-03-13T14:49:25;26.10;69.80
5128;DHT22;2582;48.770;9.190;2023-03-13T14:54:34;24.90;74.00
5128;DHT22;2582;48.770;9.190;2023-03-13T14:57:03;25.30;73.50
5128;DHT22;2582;48.770;9.190;2023-03-13T14:59:29;27.00;70.20
5128;DHT22;2582;48.770;9.190;2023-03-13T15:02:12;27.30;68.60
5128;DHT22;2582;48.770;9.190;2023-03-13T15:04:49;27.20;67.60
5128;DHT22;2582;48.770;9.190;2023-03-13T15:07:14;26.70;69.20
5128;DHT22;2582;48.770;9.190;2023-03-13T15:09:42;26.10;70.60
5128;DHT22;2582;48.770;9.190;2023-03-13T15:12:17;26.80;70.50
5128;DHT22;2582;48.770;9.190;2023-03-13T15:14:46;27.30;69.30
5128;DHT22;2582;48.770;9.190;2023-03-13T15:17:15;28.10;68.40
5128;DHT22;2582;48.770;9.190;2023-03-13T15:19:42;28.20;67.40
5128;DHT22;2582;48.770;9.190;2023-03-13T15:22:13;28.10;65.70
5128;DHT22;2582;48.770;9.190;2023-03-13T15:24:40;27.60;66.90
5128;DHT22;2582;48.770;9.190;2023-03-13T15:27:25;27.80;67.70
5128;DHT22;2582;48.770;9.190;2023-03-13T15:29:51;29.40;64.40
5128;DHT22;2582;48.770;9.190;2023-03-13T15:32:32;29.40;62.90
5128;DHT22;2582;48.770;9.190;2023-03-13T15:34:58;29.40;63.90
5128;DHT22;2582;48.770;9.190;2023-03-13T15:37:26;28.90;63.40
5128;DHT22;2582;48.770;9.190;2023-03-13T15:39:56;28.40;64.40
5128;DHT22;2582;48.770;9.190;2023-03-13T15:42:31;29.00;63.90
5128;DHT22;2582;48.770;9.190;2023-03-13T15:44:56;27.80;65.60
5128;DHT22;2582;48.770;9.190;2023-03-13T15:47:22;27.70;66.30
5128;DHT22;2582;48.770;9.190;2023-03-13T15:49:47;28.10;66.40
5128;DHT22;2582;48.770;9.190;2023-03-13T15:52:15;28.10;65.70
5128;DHT22;2582;48.770;9.190;2023-03-13T15:54:44;27.50;66.10
5128;DHT22;2582;48.770;9.190;2023-03-13T15:57:16;27.00;67.20
5128;DHT22;2582;48.770;9.190;2023-03-13T15:59:43;26.50;68.50
5128;DHT22;2582;48.770;9.190;2023-03-13T16:02:17;26.90;68.10
5128;DHT22;2582;48.770;9.190;2023-03-13T16:04:43;26.60;68.20
5128;DHT22;2582;48.770;9.190;2023-03-13T16:07:10;25.60;70.20
5128;DHT22;2582;48.770;9.190;2023-03-13T16:09:40;25.00;72.10
5128;DHT22;2582;48.770;9.190;2023-03-13T16:12:07;24.80;73.60
5128;DHT22;2582;48.770;9.190;2023-03-13T16:14:33;24.40;75.00
5128;DHT22;2582;48.770;9.190;2023-03-13T16:17:00;24.10;76.20
5128;DHT22;2582;48.770;9.190;2023-03-13T16:19:26;23.70;77.30
5128;DHT22;2582;48.770;9.190;2023-03-13T16:21:52;23.80;78.20
5128;DHT22;2582;48.770;9.190;2023-03-13T16:24:18;23.70;78.60
5128;DHT22;2582;48.770;9.190;2023-03-13T16:26:43;23.40;79.10
5128;DHT22;2582;48.770;9.190;2023-03-13T16:29:11;23.10;79.20
5128;DHT22;2582;48.770;9.190;2023-03-13T16:31:37;23.00;80.00
5128;DHT22;2582;48.770;9.190;2023-03-13T16:34:03;22.90;80.60
5128;DHT22;2582;48.770;9.190;2023-03-13T16:36:30;22.90;81.60
5128;DHT22;2582;48.770;9.190;2023-03-13T16:38:57;22.70;81.70
5128;DHT22;2582;48.770;9.190;2023-03-13T16:41:24;22.70;82.10
5128;DHT22;2582;48.770;9.190;2023-03-13T16:43:52;22.60;82.00
5128;DHT22;2582;48.770;9.190;2023-03-13T16:46:29;22.60;82.60
5128;DHT22;2582;48.770;9.190;2023-03-13T16:48:56;22.40;83.70
5128;DHT22;2582;48.770;9.190;2023-03-13T16:51:25;22.30;84.90
5128;DHT22;2582;48.770;9.190;2023-03-13T16:53:53;22.10;84.20
5128;DHT22;2582;48.770;9.190;2023-03-13T16:58:58;22.00;86.00
5128;DHT22;2582;48.770;9.190;2023-03-13T17:01:25;22.00;87.20
5128;DHT22;2582;48.770;9.190;2023-03-13T17:03:51;21.80;87.80
5128;DHT22;2582;48.770;9.190;2023-03-13T17:06:26;21.50;89.60
5128;DHT22;2582;48.770;9.190;2023-03-13T17:08:52;21.30;90.60
5128;DHT22;2582;48.770;9.190;2023-03-13T17:11:19;21.00;91.40
5128;DHT22;2582;48.770;9.190;2023-03-13T17:13:50;20.80;91.90
5128;DHT22;2582;48.770;9.190;2023-03-13T17:18:45;20.20;93.30
5128;DHT22;2582;48.770;9.190;2023-03-13T17:21:16;20.00;94.00
5128;DHT22;2582;48.770;9.190;2023-03-13T17:23:43;19.80;94.60
5128;DHT22;2582;48.770;9.190;2023-03-13T17:28:40;19.50;96.00
5128;DHT22;2582;48.770;9.190;2023-03-13T17:31:08;19.30;96.60
5128;DHT22;2582;48.770;9.190;2023-03-13T17:33:34;19.10;97.30
5128;DHT22;2582;48.770;9.190;2023-03-13T17:36:00;19.10;97.60
5128;DHT22;2582;48.770;9.190;2023-03-13T17:38:25;19.10;97.90
5128;DHT22;2582;48.770;9.190;2023-03-13T17:40:51;19.10;98.20
5128;DHT22;2582;48.770;9.190;2023-03-13T17:43:18;19.00;98.60
5128;DHT22;2582;48.770;9.190;2023-03-13T17:45:44;18.90;98.80
5128;DHT22;2582;48.770;9.190;2023-03-13T17:48:13;19.00;99.20
5128;DHT22;2582;48.770;9.190;2023-03-13T17:50:39;19.10;99.20